Time;durP1;ratioP1;P1;durP2;ratioP2;P2;SDS_P1;SDS_P2;PMS_P1;PMS_P2;Temp;Humidity;BMP_temperature;BMP_pressure;BME280_temperature;BME280_humidity;BME280_pressure;Samples;Min_cycle;Max_cycle;Signal;HPM_P1;HPM_P2
2022/01/07 00:01:30;;;;;;;;;;;4.70;99.90;;;;;;5052273;28;19963;-58
2022/01/07 00:03:56;;;;;;;;;;;4.60;99.90;;;;;;5049475;28;19912;-57
2022/01/07 00:06:21;;;;;;;;;;;4.50;99.90;;;;;;5048297;28;19963;-57
2022/01/07 00:08:47;;;;;;;;;;;4.50;99.90;;;;;;5048342;28;19920;-58
2022/01/07 00:11:12;;;;;;;;;;;4.50;99.90;;;;;;5048137;28;19912;-56
2022/01/07 00:13:38;;;;;;;;;;;4.50;99.90;;;;;;5050909;28;20008;-59
2022/01/07 00:16:03;;;;;;;;;;;4.40;99.90;;;;;;5049924;28;19912;-61
2022/01/07 00:18:29;;;;;;;;;;;4.40;99.90;;;;;;5048145;28;19912;-58
2022/01/07 00:20:55;;;;;;;;;;;4.40;99.90;;;;;;5048520;28;19917;-57
2022/01/07 00:23:21;;;;;;;;;;;4.30;99.90;;;;;;5048183;28;19912;-57
2022/01/07 00:25:46;;;;;;;;;;;4.30;99.90;;;;;;5049770;28;19916;-60
2022/01/07 00:28:12;;;;;;;;;;;4.30;99.90;;;;;;5050289;28;20063;-60
2022/01/07 00:30:37;;;;;;;;;;;4.30;99.90;;;;;;5032809;28;19920;-59
2022/01/07 00:33:04;;;;;;;;;;;4.20;99.90;;;;;;5048486;28;19913;-58
2022/01/07 00:35:29;;;;;;;;;;;4.30;99.90;;;;;;5047980;28;19913;-57
2022/01/07 00:37:55;;;;;;;;;;;4.30;99.90;;;;;;5048202;28;19913;-57
2022/01/07 00:40:22;;;;;;;;;;;4.30;99.90;;;;;;5050820;28;20401;-58
2022/01/07 00:42:49;;;;;;;;;;;4.30;99.90;;;;;;5048633;28;19920;-58
2022/01/07 00:45:15;;;;;;;;;;;4.30;99.90;;;;;;5047734;28;19923;-58
2022/01/07 00:47:40;;;;;;;;;;;4.20;99.90;;;;;;5047780;28;19913;-58
2022/01/07 00:50:07;;;;;;;;;;;4.30;99.90;;;;;;5048051;28;20316;-58
2022/01/07 00:52:33;;;;;;;;;;;4.30;99.90;;;;;;5050841;28;19913;-58
2022/01/07 00:54:59;;;;;;;;;;;4.20;99.90;;;;;;5047807;28;19920;-58
2022/01/07 00:57:24;;;;;;;;;;;4.10;99.90;;;;;;5047529;28;20002;-58
2022/01/07 00:59:50;;;;;;;;;;;4.10;99.90;;;;;;5047756;28;19921;-57
2022/01/07 01:02:15;;;;;;;;;;;4.10;99.90;;;;;;5050211;28;19948;-58
2022/01/07 01:04:44;;;;;;;;;;;4.10;99.90;;;;;;5049989;28;19913;-58
2022/01/07 01:07:11;;;;;;;;;;;4.10;99.90;;;;;;5049105;28;19925;-58
2022/01/07 01:09:36;;;;;;;;;;;4.10;99.90;;;;;;5047740;28;19925;-58
2022/01/07 01:12:03;;;;;;;;;;;4.10;99.90;;;;;;5047458;28;20262;-58
2022/01/07 01:14:29;;;;;;;;;;;4.20;99.90;;;;;;5047402;28;19917;-59
2022/01/07 01:16:55;;;;;;;;;;;4.10;99.90;;;;;;5048127;28;20446;-58
2022/01/07 01:19:22;;;;;;;;;;;4.10;99.90;;;;;;5049339;28;20543;-57
2022/01/07 01:21:48;;;;;;;;;;;4.20;99.90;;;;;;5047131;28;19917;-59
2022/01/07 01:24:13;;;;;;;;;;;4.20;99.90;;;;;;5047214;28;19958;-59
2022/01/07 01:26:38;;;;;;;;;;;4.20;99.90;;;;;;5047689;28;19913;-57
2022/01/07 01:29:04;;;;;;;;;;;4.20;99.90;;;;;;5047304;28;19930;-57
2022/01/07 01:31:31;;;;;;;;;;;4.20;99.90;;;;;;5050666;28;20391;-58
2022/01/07 01:33:56;;;;;;;;;;;4.20;99.90;;;;;;5047901;28;19909;-58
2022/01/07 01:36:22;;;;;;;;;;;4.10;99.90;;;;;;5046770;28;19920;-59
2022/01/07 01:38:47;;;;;;;;;;;4.10;99.90;;;;;;5047234;28;19913;-59
2022/01/07 01:41:13;;;;;;;;;;;4.10;99.90;;;;;;5047363;28;19913;-58
2022/01/07 01:43:38;;;;;;;;;;;4.10;99.90;;;;;;5049571;28;19908;-59
2022/01/07 01:46:04;;;;;;;;;;;4.10;99.90;;;;;;5048730;28;19913;-58
2022/01/07 01:48:30;;;;;;;;;;;4.10;99.90;;;;;;5047208;28;19922;-58
2022/01/07 01:50:55;;;;;;;;;;;4.20;99.90;;;;;;5047154;28;19917;-58
2022/01/07 01:53:21;;;;;;;;;;;4.20;99.90;;;;;;5047124;28;20476;-58
2022/01/07 01:55:46;;;;;;;;;;;4.20;99.90;;;;;;5048653;28;19927;-60
2022/01/07 01:58:12;;;;;;;;;;;4.20;99.90;;;;;;5049167;28;19913;-58
2022/01/07 02:00:38;;;;;;;;;;;4.20;99.90;;;;;;5047287;28;20007;-57
2022/01/07 02:03:04;;;;;;;;;;;4.20;99.90;;;;;;5046745;28;19913;-58
2022/01/07 02:05:30;;;;;;;;;;;4.20;99.90;;;;;;5047467;28;19909;-59
2022/01/07 02:07:56;;;;;;;;;;;4.20;99.90;;;;;;5033914;28;20294;-58
2022/01/07 02:10:21;;;;;;;;;;;4.30;99.90;;;;;;5054145;28;20420;-60
2022/01/07 02:12:47;;;;;;;;;;;4.30;99.90;;;;;;5050681;28;19920;-56
2022/01/07 02:15:13;;;;;;;;;;;4.30;99.90;;;;;;5051063;28;20404;-58
2022/01/07 02:17:40;;;;;;;;;;;4.30;99.90;;;;;;5051027;28;19920;-57
2022/01/07 02:20:07;;;;;;;;;;;4.30;99.90;;;;;;5050599;28;19913;-58
2022/01/07 02:22:32;;;;;;;;;;;4.30;99.90;;;;;;5052902;28;20003;-58
2022/01/07 02:24:58;;;;;;;;;;;4.30;99.90;;;;;;5051417;28;20399;-57
2022/01/07 02:27:23;;;;;;;;;;;4.30;99.90;;;;;;5050838;28;19913;-58
2022/01/07 02:29:49;;;;;;;;;;;4.30;99.90;;;;;;5050472;28;19920;-58
2022/01/07 02:32:15;;;;;;;;;;;4.30;99.90;;;;;;5050387;28;19913;-58
2022/01/07 02:34:41;;;;;;;;;;;4.30;99.90;;;;;;5052696;28;20011;-58
2022/01/07 02:37:06;;;;;;;;;;;4.30;99.90;;;;;;5051377;28;19972;-59
2022/01/07 02:39:32;;;;;;;;;;;4.30;99.90;;;;;;5050456;28;19913;-59
2022/01/07 02:41:57;;;;;;;;;;;4.30;99.90;;;;;;5050207;28;19912;-58
2022/01/07 02:44:23;;;;;;;;;;;4.30;99.90;;;;;;5050372;28;19966;-58
2022/01/07 02:46:49;;;;;;;;;;;4.30;99.90;;;;;;5051517;28;20340;-58
2022/01/07 02:49:16;;;;;;;;;;;4.30;99.90;;;;;;5052331;28;19924;-58
2022/01/07 02:51:42;;;;;;;;;;;4.30;99.90;;;;;;5050037;28;19919;-59
2022/01/07 02:54:08;;;;;;;;;;;4.30;99.90;;;;;;5049877;28;19999;-58
2022/01/07 02:56:34;;;;;;;;;;;4.30;99.90;;;;;;5049662;28;20341;-59
2022/01/07 02:59:02;;;;;;;;;;;4.30;99.90;;;;;;5049878;28;20317;-58
2022/01/07 03:01:27;;;;;;;;;;;4.30;99.90;;;;;;5053649;28;19916;-59
2022/01/07 03:03:53;;;;;;;;;;;4.30;99.90;;;;;;5049799;28;20425;-58
2022/01/07 03:06:20;;;;;;;;;;;4.30;99.90;;;;;;5049660;28;20397;-58
2022/01/07 03:08:47;;;;;;;;;;;4.30;99.90;;;;;;5049355;28;19920;-58
2022/01/07 03:11:13;;;;;;;;;;;4.30;99.90;;;;;;5050416;28;19975;-60
2022/01/07 03:13:38;;;;;;;;;;;4.30;99.90;;;;;;5051606;28;20375;-59
2022/01/07 03:16:04;;;;;;;;;;;4.30;99.90;;;;;;5050628;28;19913;-59
2022/01/07 03:18:29;;;;;;;;;;;4.20;99.90;;;;;;5048946;28;20012;-57
2022/01/07 03:20:57;;;;;;;;;;;4.20;99.90;;;;;;5049220;28;19923;-59
2022/01/07 03:23:23;;;;;;;;;;;4.20;99.90;;;;;;5049627;28;20416;-59
2022/01/07 03:25:48;;;;;;;;;;;4.20;99.90;;;;;;5050475;28;19961;-58
2022/01/07 03:28:14;;;;;;;;;;;4.10;99.90;;;;;;5051650;28;19919;-57
2022/01/07 03:30:39;;;;;;;;;;;4.10;99.90;;;;;;5049256;28;19971;-58
2022/01/07 03:33:05;;;;;;;;;;;4.10;99.90;;;;;;5049009;28;19917;-59
2022/01/07 03:35:31;;;;;;;;;;;4.00;99.90;;;;;;5049208;28;19916;-59
2022/01/07 03:37:57;;;;;;;;;;;4.00;99.90;;;;;;5033978;28;19958;-59
2022/01/07 03:40:22;;;;;;;;;;;4.00;99.90;;;;;;5052399;28;19962;-59
2022/01/07 03:42:48;;;;;;;;;;;4.00;99.90;;;;;;5033717;28;19909;-59
2022/01/07 03:45:15;;;;;;;;;;;4.10;99.90;;;;;;5048789;28;19917;-58
2022/01/07 03:47:40;;;;;;;;;;;4.10;99.90;;;;;;5049307;28;20042;-58
2022/01/07 03:50:07;;;;;;;;;;;4.10;99.90;;;;;;5048566;28;20008;-58
2022/01/07 03:52:33;;;;;;;;;;;4.10;99.90;;;;;;5051633;28;19968;-59
2022/01/07 03:54:58;;;;;;;;;;;4.10;99.90;;;;;;5049717;28;20385;-58
2022/01/07 03:57:24;;;;;;;;;;;4.10;99.90;;;;;;5048597;28;19909;-58
2022/01/07 03:59:50;;;;;;;;;;;4.10;99.90;;;;;;5048617;28;20008;-59
2022/01/07 04:02:19;;;;;;;;;;;4.10;99.90;;;;;;5048718;28;19920;-59
2022/01/07 04:04:45;;;;;;;;;;;4.20;99.90;;;;;;5050803;28;19971;-58
2022/01/07 04:07:10;;;;;;;;;;;4.20;99.90;;;;;;5050163;28;20009;-58
2022/01/07 04:09:36;;;;;;;;;;;4.20;99.90;;;;;;5048396;28;19928;-58
2022/01/07 04:12:01;;;;;;;;;;;4.20;99.90;;;;;;5048582;28;20053;-58
2022/01/07 04:14:27;;;;;;;;;;;4.30;99.90;;;;;;5048544;28;19916;-59
2022/01/07 04:16:52;;;;;;;;;;;4.30;99.90;;;;;;5049799;28;20283;-59
2022/01/07 04:19:18;;;;;;;;;;;4.30;99.90;;;;;;5051033;28;19916;-57
2022/01/07 04:21:43;;;;;;;;;;;4.30;99.90;;;;;;5048451;28;19912;-58
2022/01/07 04:24:09;;;;;;;;;;;4.30;99.90;;;;;;5048109;28;19917;-58
2022/01/07 04:26:35;;;;;;;;;;;4.30;99.90;;;;;;5048241;28;19912;-58
2022/01/07 04:29:00;;;;;;;;;;;4.40;99.90;;;;;;5047835;28;19928;-58
2022/01/07 04:31:26;;;;;;;;;;;4.30;99.90;;;;;;5051387;28;19916;-58
2022/01/07 04:33:51;;;;;;;;;;;4.30;99.90;;;;;;5048002;28;20297;-58
2022/01/07 04:36:17;;;;;;;;;;;4.40;99.90;;;;;;5048053;28;19917;-58
2022/01/07 04:38:43;;;;;;;;;;;4.50;99.90;;;;;;5047969;28;20332;-59
2022/01/07 04:41:09;;;;;;;;;;;4.50;99.90;;;;;;5048312;28;20378;-57
2022/01/07 04:43:34;;;;;;;;;;;4.50;99.90;;;;;;5050473;28;20003;-58
2022/01/07 04:46:00;;;;;;;;;;;4.50;99.90;;;;;;5048901;28;20370;-58
2022/01/07 04:48:25;;;;;;;;;;;4.50;99.90;;;;;;5047823;28;20365;-58
2022/01/07 04:50:51;;;;;;;;;;;4.50;99.90;;;;;;5048186;28;19919;-57
2022/01/07 04:53:16;;;;;;;;;;;4.50;99.90;;;;;;5048055;28;19967;-58
2022/01/07 04:55:44;;;;;;;;;;;4.50;99.90;;;;;;5050191;28;20003;-57
2022/01/07 04:58:11;;;;;;;;;;;4.50;99.90;;;;;;5049353;28;20328;-58
2022/01/07 05:00:37;;;;;;;;;;;4.60;99.90;;;;;;5047820;28;19913;-58
2022/01/07 05:03:03;;;;;;;;;;;4.60;99.90;;;;;;5047743;28;19958;-59
2022/01/07 05:05:28;;;;;;;;;;;4.60;99.90;;;;;;5047692;28;19947;-58
2022/01/07 05:07:54;;;;;;;;;;;4.50;99.90;;;;;;5048261;28;19980;-59
2022/01/07 05:10:19;;;;;;;;;;;4.50;99.90;;;;;;5050828;28;20435;-59
2022/01/07 05:12:45;;;;;;;;;;;4.40;99.90;;;;;;5047700;28;19917;-58
2022/01/07 05:15:12;;;;;;;;;;;4.40;99.90;;;;;;5047245;28;20835;-58
2022/01/07 05:17:37;;;;;;;;;;;4.40;99.90;;;;;;5047307;28;19951;-59
2022/01/07 05:20:03;;;;;;;;;;;4.40;99.90;;;;;;5047663;28;19948;-59
2022/01/07 05:22:29;;;;;;;;;;;4.40;99.90;;;;;;5033111;28;19912;-59
2022/01/07 05:24:54;;;;;;;;;;;4.30;99.90;;;;;;5047581;28;20328;-58
2022/01/07 05:27:20;;;;;;;;;;;4.30;99.90;;;;;;5047668;28;19913;-57
2022/01/07 05:29:45;;;;;;;;;;;4.30;99.90;;;;;;5032159;28;19932;-59
2022/01/07 05:32:11;;;;;;;;;;;4.30;99.90;;;;;;5047338;28;19935;-57
2022/01/07 05:34:36;;;;;;;;;;;4.20;99.90;;;;;;5049932;28;19909;-58
2022/01/07 05:37:02;;;;;;;;;;;4.20;99.90;;;;;;5048555;28;19915;-57
2022/01/07 05:39:27;;;;;;;;;;;4.20;99.90;;;;;;5047215;28;20007;-58
2022/01/07 05:41:53;;;;;;;;;;;4.20;99.90;;;;;;5050018;28;19956;-59
2022/01/07 05:44:19;;;;;;;;;;;4.20;99.90;;;;;;5051867;28;19919;-58
2022/01/07 05:46:45;;;;;;;;;;;4.20;99.90;;;;;;5053652;28;19952;-58
2022/01/07 05:49:10;;;;;;;;;;;4.10;99.90;;;;;;5052797;28;20442;-58
2022/01/07 05:51:35;;;;;;;;;;;4.10;99.90;;;;;;5050737;28;20279;-58
2022/01/07 05:54:01;;;;;;;;;;;4.20;99.90;;;;;;5051148;28;19999;-57
2022/01/07 05:56:27;;;;;;;;;;;4.20;99.90;;;;;;5051728;28;19924;-58
2022/01/07 05:58:53;;;;;;;;;;;4.20;99.90;;;;;;5052064;28;19964;-59
2022/01/07 06:01:18;;;;;;;;;;;4.20;99.90;;;;;;5053703;28;20011;-58
2022/01/07 06:03:44;;;;;;;;;;;4.30;99.90;;;;;;5050832;28;20099;-60
2022/01/07 06:06:09;;;;;;;;;;;4.30;99.90;;;;;;5050899;28;19920;-59
2022/01/07 06:08:35;;;;;;;;;;;4.30;99.90;;;;;;5035926;28;19920;-58
2022/01/07 06:11:00;;;;;;;;;;;4.30;99.90;;;;;;5050770;28;20341;-58
2022/01/07 06:13:26;;;;;;;;;;;4.30;99.90;;;;;;5054229;28;19913;-59
2022/01/07 06:15:52;;;;;;;;;;;4.30;99.90;;;;;;5050873;28;20261;-60
2022/01/07 06:18:17;;;;;;;;;;;4.30;99.90;;;;;;5050893;28;20296;-60
2022/01/07 06:20:43;;;;;;;;;;;4.30;99.90;;;;;;5050809;28;20538;-59
2022/01/07 06:23:08;;;;;;;;;;;4.30;99.90;;;;;;5050901;28;19924;-59
2022/01/07 06:25:34;;;;;;;;;;;4.30;99.90;;;;;;5053521;28;19909;-60
2022/01/07 06:27:59;;;;;;;;;;;4.40;99.90;;;;;;5051469;28;19978;-59
2022/01/07 06:30:25;;;;;;;;;;;4.40;99.90;;;;;;5049985;28;19943;-60
2022/01/07 06:32:50;;;;;;;;;;;4.50;99.90;;;;;;5050226;28;19912;-60
2022/01/07 06:35:16;;;;;;;;;;;4.50;99.90;;;;;;5050413;28;19913;-59
2022/01/07 06:37:42;;;;;;;;;;;4.50;99.90;;;;;;5052736;28;19983;-59
2022/01/07 06:40:08;;;;;;;;;;;4.60;99.90;;;;;;5051853;28;19908;-60
2022/01/07 06:42:33;;;;;;;;;;;4.60;99.90;;;;;;5049862;28;19916;-59
2022/01/07 06:44:59;;;;;;;;;;;4.70;99.90;;;;;;5050105;28;20315;-59
2022/01/07 06:47:25;;;;;;;;;;;4.70;99.90;;;;;;5050038;28;20360;-59
2022/01/07 06:49:50;;;;;;;;;;;4.80;99.90;;;;;;5052026;28;19929;-60
2022/01/07 06:52:16;;;;;;;;;;;4.80;99.90;;;;;;5051552;28;20015;-59
2022/01/07 06:54:41;;;;;;;;;;;4.80;99.90;;;;;;5049695;28;19913;-59
2022/01/07 06:57:07;;;;;;;;;;;4.80;99.90;;;;;;5049506;28;19917;-59
2022/01/07 06:59:32;;;;;;;;;;;4.80;99.90;;;;;;5050083;28;19948;-60
2022/01/07 07:01:58;;;;;;;;;;;4.90;99.90;;;;;;5034129;28;20432;-59
2022/01/07 07:04:23;;;;;;;;;;;4.90;99.90;;;;;;5053112;28;19916;-60
2022/01/07 07:06:49;;;;;;;;;;;4.90;99.90;;;;;;5049683;28;19963;-60
2022/01/07 07:09:16;;;;;;;;;;;4.90;99.90;;;;;;5050606;28;19924;-60
2022/01/07 07:11:43;;;;;;;;;;;4.90;99.90;;;;;;5049005;28;19988;-59
2022/01/07 07:14:09;;;;;;;;;;;5.00;99.90;;;;;;5050201;28;20057;-60
2022/01/07 07:16:35;;;;;;;;;;;5.00;99.90;;;;;;5049921;28;20350;-60
2022/01/07 07:19:00;;;;;;;;;;;5.00;99.90;;;;;;5050576;28;19913;-64
2022/01/07 07:21:26;;;;;;;;;;;5.00;99.90;;;;;;5048938;28;19917;-60
2022/01/07 07:23:51;;;;;;;;;;;5.10;99.90;;;;;;5050903;28;20297;-61
2022/01/07 07:26:17;;;;;;;;;;;5.10;99.90;;;;;;5048504;28;19913;-60
2022/01/07 07:28:42;;;;;;;;;;;5.20;99.90;;;;;;5051048;28;19929;-61
2022/01/07 07:31:13;;;;;;;;;;;5.20;99.90;;;;;;5051711;28;19924;-62
2022/01/07 07:36:27;;;;;;;;;;;5.20;99.90;;;;;;5049325;28;19913;-61
2022/01/07 07:38:55;;;;;;;;;;;5.30;99.90;;;;;;5048891;28;19921;-61
2022/01/07 07:41:20;;;;;;;;;;;5.30;99.90;;;;;;5040244;28;19913;-61
2022/01/07 07:43:47;;;;;;;;;;;5.30;99.90;;;;;;5057975;28;19912;-62
2022/01/07 07:46:13;;;;;;;;;;;5.30;99.90;;;;;;5053892;28;19952;-61
2022/01/07 07:48:38;;;;;;;;;;;5.40;99.90;;;;;;5050104;28;19952;-61
2022/01/07 07:51:04;;;;;;;;;;;5.40;99.90;;;;;;5054633;28;20865;-61
2022/01/07 07:53:29;;;;;;;;;;;5.40;99.90;;;;;;5054523;28;19943;-62
2022/01/07 07:55:55;;;;;;;;;;;5.50;99.90;;;;;;5055301;28;19945;-61
2022/01/07 07:58:21;;;;;;;;;;;5.50;99.90;;;;;;5055284;28;19956;-61
2022/01/07 08:00:47;;;;;;;;;;;5.50;99.90;;;;;;5054144;28;19920;-61
2022/01/07 08:03:13;;;;;;;;;;;5.60;99.90;;;;;;5054595;28;19917;-59
2022/01/07 08:05:39;;;;;;;;;;;5.60;99.90;;;;;;5049233;28;20297;-61
2022/01/07 08:08:04;;;;;;;;;;;5.60;99.90;;;;;;5055625;28;19967;-62
2022/01/07 08:10:31;;;;;;;;;;;5.60;99.90;;;;;;5055172;28;19952;-61
2022/01/07 08:18:15;;;;;;;;;;;5.70;99.90;;;;;;5053698;28;19982;-60
2022/01/07 08:20:40;;;;;;;;;;;5.70;99.90;;;;;;5052424;28;20389;-60
2022/01/07 08:23:06;;;;;;;;;;;5.60;99.90;;;;;;5054498;28;19954;-61
2022/01/07 08:25:32;;;;;;;;;;;5.70;99.90;;;;;;5055219;28;20319;-60
2022/01/07 08:28:03;;;;;;;;;;;5.70;99.90;;;;;;5053934;28;20592;-63
2022/01/07 08:30:36;;;;;;;;;;;5.70;99.90;;;;;;5053319;28;19917;-60
2022/01/07 08:35:46;;;;;;;;;;;5.70;99.90;;;;;;5052677;28;19927;-60
2022/01/07 08:38:12;;;;;;;;;;;5.80;99.90;;;;;;5055426;28;19913;-59
2022/01/07 08:40:38;;;;;;;;;;;5.80;99.90;;;;;;5053910;28;19971;-60
2022/01/07 08:43:03;;;;;;;;;;;5.80;99.90;;;;;;5054553;28;19916;-58
2022/01/07 08:45:29;;;;;;;;;;;5.90;99.90;;;;;;5053514;28;19917;-60
2022/01/07 08:47:55;;;;;;;;;;;5.80;99.90;;;;;;5052382;28;19913;-62
2022/01/07 08:50:20;;;;;;;;;;;5.80;99.90;;;;;;5054382;28;19967;-60
2022/01/07 08:52:46;;;;;;;;;;;5.70;99.90;;;;;;5053493;28;20262;-59
2022/01/07 08:55:11;;;;;;;;;;;5.70;99.90;;;;;;5055502;28;19924;-60
2022/01/07 08:57:37;;;;;;;;;;;5.70;99.90;;;;;;5051861;28;19960;-60
2022/01/07 09:00:04;;;;;;;;;;;5.60;99.90;;;;;;5052859;28;19932;-61
2022/01/07 09:02:29;;;;;;;;;;;5.70;99.90;;;;;;5052913;28;19913;-59
2022/01/07 09:04:56;;;;;;;;;;;5.70;99.90;;;;;;5054583;28;20293;-61
2022/01/07 09:07:21;;;;;;;;;;;5.80;99.90;;;;;;5055101;28;20007;-61
2022/01/07 09:09:47;;;;;;;;;;;5.80;99.90;;;;;;5053846;28;20016;-60
2022/01/07 09:12:12;;;;;;;;;;;5.90;99.90;;;;;;5053583;28;19921;-60
2022/01/07 09:14:38;;;;;;;;;;;5.90;99.90;;;;;;5052311;28;20332;-60
2022/01/07 09:17:04;;;;;;;;;;;5.90;99.90;;;;;;5056304;28;19956;-60
2022/01/07 09:19:29;;;;;;;;;;;5.80;99.90;;;;;;5055102;28;20308;-60
2022/01/07 09:21:56;;;;;;;;;;;5.80;99.90;;;;;;5051286;28;19917;-60
2022/01/07 09:24:22;;;;;;;;;;;5.90;99.90;;;;;;5053531;28;19958;-60
2022/01/07 09:26:48;;;;;;;;;;;5.90;99.90;;;;;;5051927;28;19988;-59
2022/01/07 09:29:14;;;;;;;;;;;5.90;99.90;;;;;;5054130;28;19923;-61
2022/01/07 09:31:39;;;;;;;;;;;6.00;99.90;;;;;;5050976;28;19917;-61
2022/01/07 09:34:06;;;;;;;;;;;6.00;99.90;;;;;;5036222;28;19919;-61
2022/01/07 09:36:32;;;;;;;;;;;6.00;99.90;;;;;;5051793;28;19912;-59
2022/01/07 09:38:58;;;;;;;;;;;6.00;99.90;;;;;;5054661;28;19968;-62
2022/01/07 09:41:24;;;;;;;;;;;6.00;99.90;;;;;;5055266;28;20217;-61
2022/01/07 09:43:49;;;;;;;;;;;6.00;99.90;;;;;;5053123;28;20425;-61
2022/01/07 09:46:15;;;;;;;;;;;6.00;99.90;;;;;;5055459;28;19912;-62
2022/01/07 09:48:41;;;;;;;;;;;6.10;99.90;;;;;;5051428;28;19923;-61
2022/01/07 09:51:07;;;;;;;;;;;6.10;99.90;;;;;;5052322;28;19917;-61
2022/01/07 09:53:33;;;;;;;;;;;6.10;99.90;;;;;;5056152;28;19987;-61
2022/01/07 09:56:00;;;;;;;;;;;6.10;99.90;;;;;;5054484;28;19925;-60
2022/01/07 09:58:25;;;;;;;;;;;6.10;99.90;;;;;;5055795;28;19912;-61
2022/01/07 10:00:59;;;;;;;;;;;6.10;99.90;;;;;;5053604;28;20289;-61
2022/01/07 10:03:25;;;;;;;;;;;6.10;99.90;;;;;;5050817;28;19935;-60
2022/01/07 10:05:50;;;;;;;;;;;6.00;99.90;;;;;;5051414;28;20373;-61
2022/01/07 10:08:27;;;;;;;;;;;6.00;99.90;;;;;;5053177;28;20015;-62
2022/01/07 10:11:14;;;;;;;;;;;6.10;99.90;;;;;;5053105;28;20069;-62
2022/01/07 10:13:40;;;;;;;;;;;6.10;99.90;;;;;;5050557;28;19913;-61
2022/01/07 10:16:16;;;;;;;;;;;6.20;99.90;;;;;;5055032;28;19915;-61
2022/01/07 10:18:42;;;;;;;;;;;6.30;99.90;;;;;;5052977;28;19969;-59
2022/01/07 10:21:08;;;;;;;;;;;6.30;99.90;;;;;;5052663;28;19921;-61
2022/01/07 10:23:34;;;;;;;;;;;6.30;99.90;;;;;;5053742;28;19923;-60
2022/01/07 10:26:00;;;;;;;;;;;6.30;99.90;;;;;;5035586;28;19917;-60
2022/01/07 10:28:30;;;;;;;;;;;6.40;99.90;;;;;;5055970;28;19913;-63
2022/01/07 10:30:56;;;;;;;;;;;6.40;99.90;;;;;;5054875;28;19999;-60
2022/01/07 10:33:25;;;;;;;;;;;6.40;99.90;;;;;;5056846;28;20038;-61
2022/01/07 10:35:52;;;;;;;;;;;6.40;99.90;;;;;;5054854;28;19917;-61
2022/01/07 10:38:19;;;;;;;;;;;6.40;99.90;;;;;;5057291;28;19917;-61
2022/01/07 10:40:45;;;;;;;;;;;6.40;99.90;;;;;;5056652;28;19923;-61
2022/01/07 10:43:21;;;;;;;;;;;6.30;99.90;;;;;;5042570;28;19917;-61
2022/01/07 10:45:51;;;;;;;;;;;6.30;99.90;;;;;;5052589;28;20018;-61
2022/01/07 10:48:18;;;;;;;;;;;6.30;99.90;;;;;;5056240;28;19917;-61
2022/01/07 10:50:45;;;;;;;;;;;6.30;99.90;;;;;;5053505;28;19917;-62
2022/01/07 10:53:18;;;;;;;;;;;6.30;99.90;;;;;;5056741;28;19917;-62
2022/01/07 10:56:10;;;;;;;;;;;6.30;99.90;;;;;;5053541;28;19916;-63
2022/01/07 10:58:49;;;;;;;;;;;6.40;99.90;;;;;;5054611;28;19917;-56
2022/01/07 11:01:21;;;;;;;;;;;6.40;99.90;;;;;;5058204;28;20024;-59
2022/01/07 11:03:57;;;;;;;;;;;6.50;99.90;;;;;;5031795;28;20275;-61
2022/01/07 11:06:23;;;;;;;;;;;6.70;99.90;;;;;;5055657;28;19940;-61
2022/01/07 11:08:49;;;;;;;;;;;6.80;99.90;;;;;;5054783;28;20005;-62
2022/01/07 11:11:15;;;;;;;;;;;6.90;99.90;;;;;;5055699;28;19995;-61
2022/01/07 11:13:41;;;;;;;;;;;7.00;99.90;;;;;;5055912;28;20462;-61
2022/01/07 11:16:06;;;;;;;;;;;7.10;99.90;;;;;;5056778;28;19924;-61
2022/01/07 11:18:35;;;;;;;;;;;7.10;99.90;;;;;;5054246;28;19912;-61
2022/01/07 11:21:01;;;;;;;;;;;7.10;99.90;;;;;;5053665;28;19979;-63
2022/01/07 11:23:27;;;;;;;;;;;7.10;99.90;;;;;;5055431;28;20396;-63
2022/01/07 11:26:03;;;;;;;;;;;7.20;99.90;;;;;;5055021;28;19928;-62
2022/01/07 11:28:29;;;;;;;;;;;7.20;99.90;;;;;;5057521;28;20266;-63
2022/01/07 11:31:11;;;;;;;;;;;7.20;99.90;;;;;;5053458;28;19986;-62
2022/01/07 11:33:37;;;;;;;;;;;7.20;99.90;;;;;;5052383;28;20111;-61
2022/01/07 11:36:02;;;;;;;;;;;7.20;99.90;;;;;;5055628;28;19913;-61
2022/01/07 11:38:35;;;;;;;;;;;7.20;99.90;;;;;;5053729;28;19912;-59
2022/01/07 11:41:02;;;;;;;;;;;7.20;99.90;;;;;;5036490;28;20267;-62
2022/01/07 11:43:32;;;;;;;;;;;7.10;99.90;;;;;;5057360;28;20297;-62
2022/01/07 11:45:59;;;;;;;;;;;7.10;99.90;;;;;;5038016;28;19913;-60
2022/01/07 11:48:27;;;;;;;;;;;7.10;99.90;;;;;;5052387;28;20381;-58
2022/01/07 11:50:56;;;;;;;;;;;7.00;99.90;;;;;;5052613;28;19917;-61
2022/01/07 11:53:22;;;;;;;;;;;7.00;99.90;;;;;;5054710;28;19918;-60
2022/01/07 11:55:49;;;;;;;;;;;7.00;99.90;;;;;;5054635;28;19917;-61
2022/01/07 11:58:15;;;;;;;;;;;7.00;99.90;;;;;;5057240;28;19920;-60
2022/01/07 12:00:47;;;;;;;;;;;6.90;99.90;;;;;;5050557;28;20024;-61
2022/01/07 12:03:12;;;;;;;;;;;6.90;99.90;;;;;;5054549;28;19913;-59
2022/01/07 12:05:38;;;;;;;;;;;7.00;99.90;;;;;;5053633;28;19919;-62
2022/01/07 12:08:03;;;;;;;;;;;7.00;99.90;;;;;;5054664;28;19929;-60
2022/01/07 12:10:29;;;;;;;;;;;7.10;99.90;;;;;;5056046;28;19969;-61
2022/01/07 12:12:58;;;;;;;;;;;7.10;99.90;;;;;;5052928;28;19967;-62
2022/01/07 12:15:23;;;;;;;;;;;7.10;99.90;;;;;;5053999;28;20021;-60
2022/01/07 12:17:49;;;;;;;;;;;7.10;99.90;;;;;;5054864;28;20389;-60
2022/01/07 12:20:37;;;;;;;;;;;7.20;99.90;;;;;;5054164;28;19928;-60
2022/01/07 12:23:02;;;;;;;;;;;7.10;99.90;;;;;;5055094;28;19955;-59
2022/01/07 12:25:28;;;;;;;;;;;7.20;99.90;;;;;;5054379;28;19944;-62
2022/01/07 12:28:00;;;;;;;;;;;7.30;99.90;;;;;;5053616;28;20071;-61
2022/01/07 12:30:26;;;;;;;;;;;7.40;99.90;;;;;;5052161;28;19912;-62
2022/01/07 12:32:52;;;;;;;;;;;7.50;99.90;;;;;;5071241;28;20400;-62
2022/01/07 12:35:18;;;;;;;;;;;7.50;99.90;;;;;;5054429;28;19963;-62
2022/01/07 12:37:43;;;;;;;;;;;7.60;99.90;;;;;;5053831;28;19928;-63
2022/01/07 12:40:10;;;;;;;;;;;7.60;99.90;;;;;;5074892;28;19921;-61
2022/01/07 12:42:38;;;;;;;;;;;7.70;99.90;;;;;;5053453;28;19989;-61
2022/01/07 12:45:04;;;;;;;;;;;7.70;99.90;;;;;;5052340;28;19971;-62
2022/01/07 12:47:31;;;;;;;;;;;7.70;99.90;;;;;;5053151;28;19917;-61
2022/01/07 12:49:58;;;;;;;;;;;7.70;99.90;;;;;;5056258;28;19913;-61
2022/01/07 12:52:24;;;;;;;;;;;7.80;99.90;;;;;;5054732;28;19920;-61
2022/01/07 12:54:53;;;;;;;;;;;7.80;99.90;;;;;;5051528;28;20439;-61
2022/01/07 12:57:25;;;;;;;;;;;7.80;99.90;;;;;;5051253;28;20381;-60
2022/01/07 13:00:06;;;;;;;;;;;7.80;99.90;;;;;;5053959;28;19924;-60
2022/01/07 13:02:32;;;;;;;;;;;7.80;99.90;;;;;;5052691;28;19913;-61
2022/01/07 13:05:15;;;;;;;;;;;7.80;99.90;;;;;;5054432;28;19913;-61
2022/01/07 13:07:42;;;;;;;;;;;7.80;99.90;;;;;;5053530;28;19964;-60
2022/01/07 13:10:07;;;;;;;;;;;7.80;99.90;;;;;;5054232;28;19925;-59
2022/01/07 13:12:36;;;;;;;;;;;7.70;99.90;;;;;;5055749;28;20225;-62
2022/01/07 13:15:02;;;;;;;;;;;7.70;99.90;;;;;;5052099;28;19913;-62
2022/01/07 13:17:28;;;;;;;;;;;7.70;99.90;;;;;;5053427;28;19924;-61
2022/01/07 13:19:54;;;;;;;;;;;7.80;99.90;;;;;;5052927;28;19932;-61
2022/01/07 13:22:23;;;;;;;;;;;7.70;99.90;;;;;;5055049;28;19936;-62
2022/01/07 13:24:49;;;;;;;;;;;7.70;99.90;;;;;;5050152;28;20321;-62
2022/01/07 13:27:14;;;;;;;;;;;7.70;99.90;;;;;;5053203;28;19917;-62
2022/01/07 13:29:45;;;;;;;;;;;7.80;99.90;;;;;;5050656;28;19913;-62
2022/01/07 13:32:11;;;;;;;;;;;7.90;99.90;;;;;;5055990;28;19959;-63
2022/01/07 13:34:40;;;;;;;;;;;8.00;99.90;;;;;;5053319;28;19967;-62
2022/01/07 13:37:05;;;;;;;;;;;8.00;99.90;;;;;;5052864;28;19967;-62
2022/01/07 13:39:40;;;;;;;;;;;8.10;99.90;;;;;;5052500;28;19992;-62
2022/01/07 13:42:07;;;;;;;;;;;8.20;99.90;;;;;;5051916;28;19921;-64
2022/01/07 13:44:47;;;;;;;;;;;8.30;99.90;;;;;;5052754;28;20459;-63
2022/01/07 13:47:18;;;;;;;;;;;8.20;99.90;;;;;;5053562;28;20007;-61
2022/01/07 13:49:44;;;;;;;;;;;8.20;99.90;;;;;;5049569;28;19913;-62
2022/01/07 13:52:09;;;;;;;;;;;8.20;99.90;;;;;;5053613;28;19913;-64
2022/01/07 13:54:39;;;;;;;;;;;8.20;99.90;;;;;;5051255;28;19927;-63
2022/01/07 13:57:07;;;;;;;;;;;8.20;99.90;;;;;;5051328;28;19956;-64
2022/01/07 13:59:42;;;;;;;;;;;8.10;99.90;;;;;;5051694;28;19917;-63
2022/01/07 14:02:08;;;;;;;;;;;8.10;99.90;;;;;;5053976;28;19927;-63
2022/01/07 14:04:43;;;;;;;;;;;8.00;99.90;;;;;;5057509;28;19920;-64
2022/01/07 14:07:27;;;;;;;;;;;8.00;99.90;;;;;;5059615;28;20273;-63
2022/01/07 14:10:02;;;;;;;;;;;8.00;99.90;;;;;;5054447;28;19969;-63
2022/01/07 14:12:28;;;;;;;;;;;8.00;99.90;;;;;;5054310;28;19923;-62
2022/01/07 14:15:03;;;;;;;;;;;8.10;99.90;;;;;;5057544;28;20285;-63
2022/01/07 14:17:30;;;;;;;;;;;8.10;99.90;;;;;;5056602;28;19960;-65
2022/01/07 14:19:56;;;;;;;;;;;8.20;99.90;;;;;;5056739;28;19936;-63
2022/01/07 14:22:21;;;;;;;;;;;8.40;99.90;;;;;;5058726;28;19913;-63
2022/01/07 14:24:47;;;;;;;;;;;8.50;99.90;;;;;;5053946;28;20294;-63
2022/01/07 14:27:23;;;;;;;;;;;8.40;99.90;;;;;;5056073;28;19968;-60
2022/01/07 14:29:49;;;;;;;;;;;8.50;99.90;;;;;;5051927;28;19923;-62
2022/01/07 14:32:15;;;;;;;;;;;8.40;99.90;;;;;;5059487;28;19912;-61
2022/01/07 14:34:40;;;;;;;;;;;8.40;99.90;;;;;;5056861;28;19913;-60
2022/01/07 14:37:05;;;;;;;;;;;8.30;99.90;;;;;;5058521;28;20340;-61
2022/01/07 14:39:31;;;;;;;;;;;8.20;99.90;;;;;;5038767;28;19924;-62